Time;durP1;ratioP1;P1;durP2;ratioP2;P2;SDS_P1;SDS_P2;PMS_P1;PMS_P2;Temp;Humidity;BMP_temperature;BMP_pressure;BME280_temperature;BME280_humidity;BME280_pressure;Samples;Min_cycle;Max_cycle;Signal;HPM_P1;HPM_P2
2022/10/20 00:03:15;;;;;;;2.60;1.70;;;;;;;;;;10457223;28;20247;-69
2022/10/20 00:08:17;;;;;;;2.25;2.05;;;;;;;;;;10455345;28;20341;-70
2022/10/20 00:13:18;;;;;;;2.13;1.38;;;;;;;;;;10456095;28;20680;-71
2022/10/20 00:18:19;;;;;;;1.65;1.55;;;;;;;;;;10458177;28;20304;-71
2022/10/20 00:23:21;;;;;;;2.08;1.40;;;;;;;;;;10456397;28;20264;-70
2022/10/20 00:28:22;;;;;;;3.20;1.92;;;;;;;;;;10455933;28;20248;-71
2022/10/20 00:33:24;;;;;;;1.58;1.48;;;;;;;;;;10457307;28;20720;-70
2022/10/20 00:38:25;;;;;;;1.65;1.55;;;;;;;;;;10456346;28;20360;-69
2022/10/20 00:43:43;;;;;;;1.23;1.13;;;;;;;;;;10453424;28;20699;-70
2022/10/20 00:48:46;;;;;;;2.30;1.15;;;;;;;;;;10455004;28;20247;-71
2022/10/20 00:53:48;;;;;;;1.30;1.20;;;;;;;;;;10453957;28;20244;-70
2022/10/20 00:58:50;;;;;;;1.10;1.10;;;;;;;;;;10460118;28;20214;-69
2022/10/20 01:03:51;;;;;;;1.40;1.35;;;;;;;;;;10461455;28;20222;-70
2022/10/20 01:08:53;;;;;;;4.20;1.65;;;;;;;;;;10458373;28;21218;-70
2022/10/20 01:14:03;;;;;;;1.55;1.35;;;;;;;;;;10457656;28;20699;-71
2022/10/20 01:19:20;;;;;;;1.30;1.05;;;;;;;;;;10454357;28;20250;-70
2022/10/20 01:24:38;;;;;;;1.10;1.10;;;;;;;;;;10456744;28;20233;-71
2022/10/20 01:29:45;;;;;;;2.05;1.55;;;;;;;;;;10460343;28;20738;-71
2022/10/20 01:34:48;;;;;;;1.05;1.05;;;;;;;;;;10460176;28;20207;-71
2022/10/20 01:39:54;;;;;;;1.50;1.40;;;;;;;;;;10463510;28;20229;-71
2022/10/20 01:44:58;;;;;;;0.98;0.93;;;;;;;;;;10459417;28;20229;-70
2022/10/20 01:49:59;;;;;;;1.10;1.10;;;;;;;;;;10462585;28;20221;-71
2022/10/20 01:55:00;;;;;;;1.80;1.15;;;;;;;;;;10461067;28;20913;-71
2022/10/20 02:00:08;;;;;;;1.23;1.23;;;;;;;;;;10462197;28;20226;-71
2022/10/20 02:05:39;;;;;;;1.75;1.02;;;;;;;;;;10459162;28;20242;-71
2022/10/20 02:10:47;;;;;;;0.80;0.80;;;;;;;;;;10445120;28;20226;-71
2022/10/20 02:15:52;;;;;;;1.67;0.98;;;;;;;;;;10462683;28;20238;-70
2022/10/20 02:20:54;;;;;;;1.30;1.30;;;;;;;;;;10460603;28;20237;-70
2022/10/20 02:25:56;;;;;;;1.65;1.48;;;;;;;;;;10466530;28;20218;-70
2022/10/20 02:30:57;;;;;;;1.27;1.02;;;;;;;;;;10464673;28;20218;-70
2022/10/20 02:35:59;;;;;;;0.90;0.90;;;;;;;;;;10465350;28;20233;-71
2022/10/20 02:41:00;;;;;;;0.95;0.95;;;;;;;;;;10461340;28;20222;-70
2022/10/20 02:46:01;;;;;;;0.68;0.65;;;;;;;;;;10460226;28;20227;-71
2022/10/20 02:51:02;;;;;;;0.90;0.88;;;;;;;;;;10460657;28;20318;-71
2022/10/20 02:56:03;;;;;;;0.52;0.52;;;;;;;;;;10459683;28;20641;-71
2022/10/20 03:01:05;;;;;;;1.05;1.05;;;;;;;;;;10460551;28;20250;-71
2022/10/20 03:06:07;;;;;;;0.85;0.85;;;;;;;;;;10458445;28;20286;-71
2022/10/20 03:11:08;;;;;;;2.00;0.75;;;;;;;;;;10457152;28;20766;-71
2022/10/20 03:16:10;;;;;;;4.30;1.15;;;;;;;;;;10459235;28;20218;-71
2022/10/20 03:21:11;;;;;;;0.50;0.50;;;;;;;;;;10455753;28;20259;-71
2022/10/20 03:26:12;;;;;;;0.80;0.80;;;;;;;;;;10459263;28;20225;-71
2022/10/20 03:31:13;;;;;;;0.80;0.80;;;;;;;;;;10459836;28;20332;-71
2022/10/20 03:36:14;;;;;;;0.90;0.82;;;;;;;;;;10460245;28;20690;-71
2022/10/20 03:41:15;;;;;;;1.48;0.93;;;;;;;;;;10452687;28;20900;-71
2022/10/20 03:46:16;;;;;;;3.28;1.08;;;;;;;;;;10456336;28;20220;-70
2022/10/20 03:51:18;;;;;;;1.63;0.70;;;;;;;;;;10450510;28;20251;-71
2022/10/20 03:56:19;;;;;;;2.08;1.05;;;;;;;;;;10452942;28;20331;-71
2022/10/20 04:01:22;;;;;;;1.40;0.98;;;;;;;;;;10454434;28;20249;-71
2022/10/20 04:06:24;;;;;;;0.90;0.90;;;;;;;;;;10456139;28;20219;-71
2022/10/20 04:11:25;;;;;;;1.17;1.13;;;;;;;;;;10448888;28;20252;-72
2022/10/20 04:16:26;;;;;;;2.05;1.15;;;;;;;;;;10452675;28;20717;-72
2022/10/20 04:21:28;;;;;;;1.42;1.25;;;;;;;;;;10450135;28;20222;-72
2022/10/20 04:26:29;;;;;;;1.17;0.93;;;;;;;;;;10453031;28;20218;-72
2022/10/20 04:31:30;;;;;;;1.98;1.40;;;;;;;;;;10451933;28;20218;-71
2022/10/20 04:36:31;;;;;;;1.92;1.83;;;;;;;;;;10449820;28;20301;-71
2022/10/20 04:41:32;;;;;;;1.88;1.73;;;;;;;;;;10450327;28;20223;-72
2022/10/20 04:46:33;;;;;;;1.75;1.67;;;;;;;;;;10446525;28;20891;-72
2022/10/20 04:51:35;;;;;;;2.28;1.88;;;;;;;;;;10451519;28;20221;-72
2022/10/20 04:56:36;;;;;;;2.15;2.08;;;;;;;;;;10451753;28;20303;-71
2022/10/20 05:01:37;;;;;;;4.78;2.72;;;;;;;;;;10451593;28;20693;-72
2022/10/20 05:06:38;;;;;;;3.35;2.65;;;;;;;;;;10454442;28;20213;-71
2022/10/20 05:11:39;;;;;;;2.47;2.25;;;;;;;;;;10451003;28;20227;-71
2022/10/20 05:16:40;;;;;;;2.40;2.28;;;;;;;;;;10435148;28;20226;-72
2022/10/20 05:21:41;;;;;;;5.78;2.35;;;;;;;;;;10437708;28;20333;-72
2022/10/20 05:26:43;;;;;;;2.45;2.22;;;;;;;;;;10450834;28;20749;-70
2022/10/20 05:31:44;;;;;;;4.63;2.05;;;;;;;;;;10455177;28;20295;-71
2022/10/20 05:36:45;;;;;;;3.35;2.90;;;;;;;;;;10450001;28;20316;-70
2022/10/20 05:41:46;;;;;;;3.60;2.45;;;;;;;;;;10455945;28;20301;-70
2022/10/20 05:46:47;;;;;;;3.17;2.80;;;;;;;;;;10456212;28;20241;-71
2022/10/20 05:51:48;;;;;;;2.50;2.35;;;;;;;;;;10447545;28;20221;-70
2022/10/20 05:56:49;;;;;;;3.83;2.90;;;;;;;;;;10453316;28;20219;-71
2022/10/20 06:01:51;;;;;;;3.38;2.58;;;;;;;;;;10459184;28;20874;-71
2022/10/20 06:06:53;;;;;;;6.70;3.13;;;;;;;;;;10454995;28;20214;-71
2022/10/20 06:11:54;;;;;;;7.47;3.25;;;;;;;;;;10453141;28;20252;-70
2022/10/20 06:16:56;;;;;;;4.68;2.95;;;;;;;;;;10465212;28;20702;-70
2022/10/20 06:21:57;;;;;;;4.53;3.05;;;;;;;;;;10463232;28;20217;-70
2022/10/20 06:26:58;;;;;;;5.38;4.38;;;;;;;;;;10459992;28;20268;-70
2022/10/20 06:31:59;;;;;;;4.78;4.30;;;;;;;;;;10462487;28;20240;-69
2022/10/20 06:37:00;;;;;;;6.15;3.92;;;;;;;;;;10455505;28;20225;-69
2022/10/20 06:42:04;;;;;;;7.47;5.60;;;;;;;;;;10462871;28;20373;-68
2022/10/20 06:47:09;;;;;;;7.72;5.00;;;;;;;;;;10463432;28;20591;-68
2022/10/20 06:52:10;;;;;;;7.55;4.90;;;;;;;;;;10460090;28;20273;-69
2022/10/20 06:57:11;;;;;;;9.40;6.22;;;;;;;;;;10463292;28;20301;-69
2022/10/20 07:02:12;;;;;;;31.98;16.90;;;;;;;;;;10460373;28;20593;-69
2022/10/20 07:07:13;;;;;;;26.35;13.00;;;;;;;;;;10460863;28;20334;-69
2022/10/20 07:12:14;;;;;;;47.50;18.75;;;;;;;;;;10458280;28;20226;-69
2022/10/20 07:17:16;;;;;;;19.42;13.32;;;;;;;;;;10459713;28;20270;-69
2022/10/20 07:22:17;;;;;;;15.63;9.10;;;;;;;;;;10457834;28;20219;-69
2022/10/20 07:27:18;;;;;;;12.27;8.27;;;;;;;;;;10464127;28;20588;-69
2022/10/20 07:32:19;;;;;;;11.88;7.93;;;;;;;;;;10457395;28;20221;-68
2022/10/20 07:37:20;;;;;;;13.60;8.50;;;;;;;;;;10461320;28;20283;-69
2022/10/20 07:42:21;;;;;;;12.18;6.90;;;;;;;;;;10457706;28;20237;-68
2022/10/20 07:47:22;;;;;;;11.52;7.63;;;;;;;;;;10459421;28;20753;-69
2022/10/20 07:52:23;;;;;;;10.48;7.03;;;;;;;;;;10461042;28;20234;-69
2022/10/20 07:57:24;;;;;;;12.35;7.57;;;;;;;;;;10455636;28;20224;-69
2022/10/20 08:02:26;;;;;;;9.88;6.85;;;;;;;;;;10456711;28;20234;-69
2022/10/20 08:07:27;;;;;;;11.48;7.53;;;;;;;;;;10458396;28;20227;-69
2022/10/20 08:12:28;;;;;;;11.57;7.85;;;;;;;;;;10457427;28;20231;-70
2022/10/20 08:17:29;;;;;;;11.88;8.32;;;;;;;;;;10454028;28;20712;-69
2022/10/20 08:22:30;;;;;;;8.80;7.55;;;;;;;;;;10457923;28;20221;-69
2022/10/20 08:27:31;;;;;;;8.70;7.05;;;;;;;;;;10454723;28;20210;-70
2022/10/20 08:32:32;;;;;;;10.75;7.78;;;;;;;;;;10455899;28;20639;-70
2022/10/20 08:37:35;;;;;;;12.55;8.00;;;;;;;;;;10455506;28;20226;-69
2022/10/20 08:42:38;;;;;;;7.68;5.85;;;;;;;;;;10457840;28;20285;-70
2022/10/20 08:47:39;;;;;;;7.25;4.82;;;;;;;;;;10458780;28;20226;-70
2022/10/20 08:52:41;;;;;;;7.68;6.70;;;;;;;;;;10453491;28;20238;-71
2022/10/20 08:57:42;;;;;;;13.68;8.77;;;;;;;;;;10454694;28;20308;-70
2022/10/20 09:02:44;;;;;;;11.90;8.60;;;;;;;;;;10455135;28;20226;-69
2022/10/20 09:07:48;;;;;;;17.52;11.60;;;;;;;;;;10454628;28;20230;-70
2022/10/20 09:12:50;;;;;;;14.13;9.13;;;;;;;;;;10460132;28;20225;-71
2022/10/20 09:17:53;;;;;;;12.02;8.45;;;;;;;;;;10439535;28;20214;-72
2022/10/20 09:22:54;;;;;;;7.75;6.95;;;;;;;;;;10453570;28;20759;-69
2022/10/20 09:27:56;;;;;;;6.18;5.60;;;;;;;;;;10455207;28;20218;-72
2022/10/20 09:32:57;;;;;;;6.03;5.53;;;;;;;;;;10455137;28;20222;-69
2022/10/20 09:37:58;;;;;;;5.07;4.47;;;;;;;;;;10458004;28;20229;-69
2022/10/20 09:43:02;;;;;;;5.40;4.88;;;;;;;;;;10457352;28;20234;-70
2022/10/20 09:48:07;;;;;;;4.72;4.38;;;;;;;;;;10452796;28;20271;-71
2022/10/20 09:53:16;;;;;;;4.95;4.65;;;;;;;;;;10463344;28;20316;-71
2022/10/20 09:58:28;;;;;;;4.80;4.60;;;;;;;;;;10462353;28;20705;-69
2022/10/20 10:03:37;;;;;;;5.75;5.32;;;;;;;;;;10462705;28;20228;-70
2022/10/20 10:08:44;;;;;;;6.00;5.50;;;;;;;;;;10466743;28;20872;-68
2022/10/20 10:13:46;;;;;;;3.97;3.75;;;;;;;;;;10459262;28;20225;-68
2022/10/20 10:18:55;;;;;;;7.03;4.47;;;;;;;;;;10461532;28;20365;-68
2022/10/20 10:23:58;;;;;;;3.83;3.45;;;;;;;;;;10458290;28;20214;-69
2022/10/20 10:29:00;;;;;;;3.13;3.03;;;;;;;;;;10461889;28;20214;-69
2022/10/20 10:34:13;;;;;;;3.90;3.60;;;;;;;;;;10458246;28;20230;-69
2022/10/20 10:39:15;;;;;;;3.30;3.17;;;;;;;;;;10460406;28;20222;-69
2022/10/20 10:44:32;;;;;;;3.50;3.20;;;;;;;;;;10459632;28;20229;-68
2022/10/20 10:49:39;;;;;;;3.75;3.38;;;;;;;;;;10459569;28;20221;-69
2022/10/20 10:54:53;;;;;;;3.17;3.08;;;;;;;;;;10461406;28;20219;-69
2022/10/20 10:59:54;;;;;;;2.97;2.80;;;;;;;;;;10458201;28;20216;-69
2022/10/20 11:05:06;;;;;;;3.13;3.03;;;;;;;;;;10457635;28;20217;-69
2022/10/20 11:10:19;;;;;;;2.72;2.63;;;;;;;;;;10460008;28;20229;-69
2022/10/20 11:15:29;;;;;;;3.33;3.10;;;;;;;;;;10458189;28;20214;-69
2022/10/20 11:20:38;;;;;;;3.20;3.08;;;;;;;;;;10456685;28;20219;-69
2022/10/20 11:25:48;;;;;;;3.00;2.78;;;;;;;;;;10460737;28;20268;-69
2022/10/20 11:30:50;;;;;;;3.13;2.90;;;;;;;;;;10457558;28;21028;-69
2022/10/20 11:36:02;;;;;;;3.05;2.92;;;;;;;;;;10451562;28;20330;-68
2022/10/20 11:41:16;;;;;;;3.50;3.20;;;;;;;;;;10454715;28;20696;-69
2022/10/20 11:46:20;;;;;;;3.33;3.13;;;;;;;;;;10457280;28;20234;-69
2022/10/20 11:51:30;;;;;;;3.83;3.72;;;;;;;;;;10456053;28;20231;-68
2022/10/20 11:56:47;;;;;;;2.90;2.80;;;;;;;;;;10458837;28;21073;-69
2022/10/20 12:02:07;;;;;;;3.03;2.92;;;;;;;;;;10460679;28;20237;-69
2022/10/20 12:07:11;;;;;;;3.40;3.13;;;;;;;;;;10456414;28;20241;-69
2022/10/20 12:12:18;;;;;;;3.25;3.08;;;;;;;;;;10453366;28;20344;-68
2022/10/20 12:17:22;;;;;;;2.90;2.80;;;;;;;;;;10458058;28;20976;-69
2022/10/20 12:22:23;;;;;;;3.33;3.13;;;;;;;;;;10453254;28;20297;-69
2022/10/20 12:27:26;;;;;;;8.98;8.25;;;;;;;;;;10459210;28;20310;-68
2022/10/20 12:32:27;;;;;;;3.25;3.15;;;;;;;;;;10455641;28;20237;-69
2022/10/20 12:37:29;;;;;;;2.67;2.05;;;;;;;;;;10455681;28;20792;-69
2022/10/20 12:42:32;;;;;;;2.45;2.45;;;;;;;;;;10455467;28;20338;-69
2022/10/20 12:47:35;;;;;;;2.95;2.75;;;;;;;;;;10457095;28;20230;-70
2022/10/20 12:52:38;;;;;;;3.45;3.25;;;;;;;;;;10454239;28;20671;-69
2022/10/20 12:57:44;;;;;;;2.30;2.22;;;;;;;;;;10456233;28;20271;-68
2022/10/20 13:02:48;;;;;;;2.13;2.03;;;;;;;;;;10456920;28;20277;-70
2022/10/20 13:07:51;;;;;;;2.55;2.42;;;;;;;;;;10455567;28;20222;-69
2022/10/20 13:13:13;;;;;;;2.85;2.75;;;;;;;;;;10450483;28;20217;-70
2022/10/20 13:18:20;;;;;;;3.42;3.20;;;;;;;;;;10452579;28;20234;-69
2022/10/20 13:23:28;;;;;;;2.67;2.13;;;;;;;;;;10457755;28;20839;-69
2022/10/20 13:28:31;;;;;;;2.97;2.58;;;;;;;;;;10461811;28;20246;-68
2022/10/20 13:33:32;;;;;;;3.25;2.95;;;;;;;;;;10459809;28;20667;-68
2022/10/20 13:38:56;;;;;;;3.28;3.13;;;;;;;;;;10461809;28;20221;-69
2022/10/20 13:44:12;;;;;;;2.92;2.80;;;;;;;;;;10455732;28;20317;-67
2022/10/20 13:49:32;;;;;;;2.83;2.22;;;;;;;;;;10443833;28;20257;-70
2022/10/20 13:54:36;;;;;;;1.83;1.73;;;;;;;;;;10451872;28;20641;-69
2022/10/20 13:59:37;;;;;;;3.25;2.25;;;;;;;;;;10463714;28;21225;-69
2022/10/20 14:04:38;;;;;;;2.28;2.10;;;;;;;;;;10448689;28;21008;-69
2022/10/20 14:09:40;;;;;;;2.45;1.95;;;;;;;;;;10456459;28;20225;-69
2022/10/20 14:14:44;;;;;;;1.88;1.70;;;;;;;;;;10456614;28;20223;-69
2022/10/20 14:19:45;;;;;;;1.30;1.20;;;;;;;;;;10449406;28;20226;-69
2022/10/20 14:24:47;;;;;;;2.20;2.00;;;;;;;;;;10453107;28;20222;-70
2022/10/20 14:29:49;;;;;;;2.00;1.90;;;;;;;;;;10459872;28;20229;-70
2022/10/20 14:34:55;;;;;;;4.10;2.08;;;;;;;;;;10454589;28;20242;-70
2022/10/20 14:39:58;;;;;;;1.50;1.40;;;;;;;;;;10460605;28;20210;-71
2022/10/20 14:45:01;;;;;;;2.10;1.92;;;;;;;;;;10456005;28;20229;-70
2022/10/20 14:50:02;;;;;;;6.00;4.30;;;;;;;;;;10451417;28;20226;-70
2022/10/20 14:55:23;;;;;;;8.95;8.15;;;;;;;;;;10458045;28;20255;-70
2022/10/20 15:00:27;;;;;;;5.57;5.10;;;;;;;;;;10450844;28;20248;-70
2022/10/20 15:05:35;;;;;;;3.20;2.95;;;;;;;;;;10451723;28;20187;-69
2022/10/20 15:10:37;;;;;;;2.88;2.78;;;;;;;;;;10460088;28;20230;-70
2022/10/20 15:15:39;;;;;;;4.82;2.90;;;;;;;;;;10458449;28;20253;-70
2022/10/20 15:20:41;;;;;;;2.92;2.75;;;;;;;;;;10439126;28;20276;-69
2022/10/20 15:25:53;;;;;;;3.05;2.90;;;;;;;;;;10459063;28;20706;-70
2022/10/20 15:30:54;;;;;;;2.65;2.45;;;;;;;;;;10461406;28;20219;-70
2022/10/20 15:35:55;;;;;;;3.08;2.88;;;;;;;;;;10457791;28;20226;-70
2022/10/20 15:40:59;;;;;;;2.72;2.58;;;;;;;;;;10440042;28;20214;-69
2022/10/20 15:46:00;;;;;;;2.15;2.05;;;;;;;;;;10454152;28;20242;-68
2022/10/20 15:51:01;;;;;;;3.22;2.33;;;;;;;;;;10458605;28;20693;-70
2022/10/20 15:56:02;;;;;;;2.80;2.60;;;;;;;;;;10456380;28;20242;-69
2022/10/20 16:01:04;;;;;;;2.45;2.25;;;;;;;;;;10456416;28;20221;-69
2022/10/20 16:06:05;;;;;;;2.60;2.50;;;;;;;;;;10459010;28;20266;-70
2022/10/20 16:11:06;;;;;;;2.58;2.47;;;;;;;;;;10461220;28;20233;-70
2022/10/20 16:16:08;;;;;;;2.72;2.42;;;;;;;;;;10463023;28;20564;-72
2022/10/20 16:21:10;;;;;;;2.42;2.22;;;;;;;;;;10440665;28;20232;-70
2022/10/20 16:26:12;;;;;;;2.50;2.40;;;;;;;;;;10457464;28;20682;-73
2022/10/20 16:31:14;;;;;;;2.42;2.25;;;;;;;;;;10455647;28;20340;-71
2022/10/20 16:36:16;;;;;;;2.58;2.38;;;;;;;;;;10453825;28;20585;-71
2022/10/20 16:41:17;;;;;;;3.58;3.15;;;;;;;;;;10448809;28;20227;-70
2022/10/20 16:46:19;;;;;;;2.20;2.10;;;;;;;;;;10454466;28;20279;-71
2022/10/20 16:51:20;;;;;;;3.13;2.80;;;;;;;;;;10440767;28;20875;-72
2022/10/20 16:56:21;;;;;;;2.55;2.20;;;;;;;;;;10450504;28;20226;-71
2022/10/20 17:01:22;;;;;;;2.13;2.03;;;;;;;;;;10451526;28;20217;-71
2022/10/20 17:06:25;;;;;;;3.03;2.47;;;;;;;;;;10454019;28;20222;-71
2022/10/20 17:11:28;;;;;;;2.55;2.30;;;;;;;;;;10450870;28;20233;-71
2022/10/20 17:16:30;;;;;;;4.63;2.58;;;;;;;;;;10455440;28;20215;-71
2022/10/20 17:21:32;;;;;;;3.15;2.95;;;;;;;;;;10457400;28;20318;-71
2022/10/20 17:26:33;;;;;;;3.70;2.85;;;;;;;;;;10442815;28;20843;-71
2022/10/20 17:31:35;;;;;;;2.55;2.28;;;;;;;;;;10453128;28;20221;-72
2022/10/20 17:36:36;;;;;;;3.08;2.88;;;;;;;;;;10453740;28;20226;-70
2022/10/20 17:41:37;;;;;;;21.10;12.07;;;;;;;;;;10451932;28;20218;-71
2022/10/20 17:46:38;;;;;;;9.90;6.38;;;;;;;;;;10446881;28;20230;-71
2022/10/20 17:51:39;;;;;;;15.38;9.50;;;;;;;;;;10453968;28;20218;-72
2022/10/20 17:56:41;;;;;;;9.65;6.70;;;;;;;;;;10455928;28;20218;-70
2022/10/20 18:01:42;;;;;;;4.47;2.78;;;;;;;;;;10453720;28;20346;-71
2022/10/20 18:06:44;;;;;;;13.70;12.30;;;;;;;;;;10454853;28;20221;-71
2022/10/20 18:11:50;;;;;;;3.08;2.88;;;;;;;;;;10463102;28;20222;-71
2022/10/20 18:16:51;;;;;;;3.88;3.45;;;;;;;;;;10462223;28;20222;-71
2022/10/20 18:21:52;;;;;;;2.92;2.72;;;;;;;;;;10464098;28;20222;-71
2022/10/20 18:26:53;;;;;;;2.05;1.90;;;;;;;;;;10461190;28;20213;-71
2022/10/20 18:31:54;;;;;;;3.80;3.13;;;;;;;;;;10463246;28;20226;-71
2022/10/20 18:36:55;;;;;;;1.75;1.65;;;;;;;;;;10457816;28;20221;-71
2022/10/20 18:41:57;;;;;;;3.40;2.33;;;;;;;;;;10462536;28;20225;-72
2022/10/20 18:46:58;;;;;;;2.65;2.45;;;;;;;;;;10460844;28;20258;-72
2022/10/20 18:52:01;;;;;;;2.75;2.55;;;;;;;;;;10464188;28;20700;-71
2022/10/20 18:57:03;;;;;;;3.08;2.85;;;;;;;;;;10462860;28;20214;-72
2022/10/20 19:02:04;;;;;;;4.07;2.45;;;;;;;;;;10459799;28;20804;-71
2022/10/20 19:07:05;;;;;;;2.63;2.53;;;;;;;;;;10462240;28;20224;-71
2022/10/20 19:12:06;;;;;;;3.92;2.25;;;;;;;;;;10459601;28;20223;-71
2022/10/20 19:17:07;;;;;;;2.28;2.00;;;;;;;;;;10457663;28;20233;-71
2022/10/20 19:22:08;;;;;;;2.63;2.42;;;;;;;;;;10458119;28;20218;-71
2022/10/20 19:27:10;;;;;;;2.70;2.45;;;;;;;;;;10456724;28;20731;-71
2022/10/20 19:32:11;;;;;;;2.75;2.60;;;;;;;;;;10460910;28;20228;-71
2022/10/20 19:37:12;;;;;;;2.75;2.58;;;;;;;;;;10458374;28;20232;-71
2022/10/20 19:42:13;;;;;;;7.43;2.10;;;;;;;;;;10452133;28;20278;-72
2022/10/20 19:47:14;;;;;;;4.28;2.80;;;;;;;;;;10452095;28;20222;-71
2022/10/20 19:52:15;;;;;;;2.70;2.50;;;;;;;;;;10463047;28;20245;-71
2022/10/20 19:57:17;;;;;;;2.88;2.67;;;;;;;;;;10447878;28;20234;-71
2022/10/20 20:02:18;;;;;;;3.38;3.08;;;;;;;;;;10454626;28;20211;-71
2022/10/20 20:07:19;;;;;;;3.58;3.15;;;;;;;;;;10454561;28;20218;-70
2022/10/20 20:12:20;;;;;;;3.03;2.83;;;;;;;;;;10447056;28;20230;-70
2022/10/20 20:17:21;;;;;;;2.95;2.75;;;;;;;;;;10462240;28;20231;-73
2022/10/20 20:22:23;;;;;;;14.75;10.38;;;;;;;;;;10459064;28;20724;-71
2022/10/20 20:27:24;;;;;;;4.20;3.83;;;;;;;;;;10462871;28;20791;-72
2022/10/20 20:32:25;;;;;;;4.07;3.78;;;;;;;;;;10455924;28;20230;-71
2022/10/20 20:37:26;;;;;;;9.52;6.78;;;;;;;;;;10455569;28;20310;-71
2022/10/20 20:42:27;;;;;;;6.32;5.72;;;;;;;;;;10458031;28;20264;-69
2022/10/20 20:47:31;;;;;;;10.20;5.90;;;;;;;;;;10453943;28;20220;-69
2022/10/20 20:52:32;;;;;;;9.75;7.28;;;;;;;;;;10454263;28;20245;-69
2022/10/20 20:57:33;;;;;;;8.88;5.72;;;;;;;;;;10459499;28;20301;-70
2022/10/20 21:02:35;;;;;;;5.20;4.70;;;;;;;;;;10448886;28;20219;-69
2022/10/20 21:07:36;;;;;;;5.55;4.43;;;;;;;;;;10456564;28;20230;-70
2022/10/20 21:12:37;;;;;;;5.70;5.28;;;;;;;;;;10452672;28;20260;-69
2022/10/20 21:17:38;;;;;;;5.05;4.55;;;;;;;;;;10452913;28;20812;-69
2022/10/20 21:22:39;;;;;;;5.22;4.80;;;;;;;;;;10444794;28;20597;-69
2022/10/20 21:27:40;;;;;;;30.90;16.02;;;;;;;;;;10455017;28;20249;-69
2022/10/20 21:32:41;;;;;;;8.63;7.15;;;;;;;;;;10451222;28;20827;-69
2022/10/20 21:37:42;;;;;;;17.85;11.45;;;;;;;;;;10452173;28;20292;-69
2022/10/20 21:42:43;;;;;;;11.20;7.28;;;;;;;;;;10448828;28;20235;-68
2022/10/20 21:47:44;;;;;;;9.95;5.88;;;;;;;;;;10468246;28;20240;-69
2022/10/20 21:52:48;;;;;;;5.00;4.57;;;;;;;;;;10462902;28;20280;-69
2022/10/20 21:57:50;;;;;;;9.15;5.43;;;;;;;;;;10462737;28;20219;-69
2022/10/20 22:02:51;;;;;;;6.65;5.60;;;;;;;;;;10439356;28;20218;-69
2022/10/20 22:07:52;;;;;;;6.90;6.22;;;;;;;;;;10457813;28;20234;-70
2022/10/20 22:12:53;;;;;;;9.55;8.65;;;;;;;;;;10457499;28;20224;-69
2022/10/20 22:17:54;;;;;;;8.68;6.82;;;;;;;;;;10462991;28;20214;-69
2022/10/20 22:22:55;;;;;;;7.50;6.07;;;;;;;;;;10463257;28;20724;-69
2022/10/20 22:27:56;;;;;;;5.43;4.95;;;;;;;;;;10461504;28;20694;-69
2022/10/20 22:32:57;;;;;;;7.05;5.25;;;;;;;;;;10451509;28;20826;-69
2022/10/20 22:37:58;;;;;;;11.50;9.80;;;;;;;;;;10459767;28;20252;-69
2022/10/20 22:43:00;;;;;;;9.15;8.23;;;;;;;;;;10462181;28;20230;-69
2022/10/20 22:48:01;;;;;;;8.10;6.38;;;;;;;;;;10458475;28;20698;-69
2022/10/20 22:53:02;;;;;;;18.75;13.30;;;;;;;;;;10451860;28;20223;-69
2022/10/20 22:58:03;;;;;;;15.93;10.73;;;;;;;;;;10454921;28;20218;-69
2022/10/20 23:03:04;;;;;;;9.43;7.00;;;;;;;;;;10438617;28;20798;-69
2022/10/20 23:08:05;;;;;;;6.85;5.10;;;;;;;;;;10456405;28;20215;-69
2022/10/20 23:13:06;;;;;;;8.80;7.15;;;;;;;;;;10453591;28;20577;-70
2022/10/20 23:18:07;;;;;;;9.25;5.28;;;;;;;;;;10455089;28;20214;-68
2022/10/20 23:23:09;;;;;;;5.97;5.47;;;;;;;;;;10458811;28;20614;-70
2022/10/20 23:28:10;;;;;;;5.28;4.18;;;;;;;;;;10460826;28;20222;-70
2022/10/20 23:33:11;;;;;;;5.75;4.90;;;;;;;;;;10441020;28;20237;-70
2022/10/20 23:38:12;;;;;;;6.05;4.85;;;;;;;;;;10453686;28;20214;-69
2022/10/20 23:43:13;;;;;;;9.55;6.90;;;;;;;;;;10459386;28;20230;-70
2022/10/20 23:48:14;;;;;;;7.18;5.22;;;;;;;;;;10457683;28;20708;-70
2022/10/20 23:53:15;;;;;;;6.18;4.97;;;;;;;;;;10452646;28;20672;-70
2022/10/20 23:58:20;;;;;;;4.65;4.25;;;;;;;;;;10452978;28;20241;-70
